Adams, WI

10:38 PM CDT on May 25, 2015 (GMT -0500)
Rural Adams County | | Change Station
CLOSE
Current Station
Personal Weather Station
Location: Adams, WI
Elevation: 997 ft
Nearby Weather Stations

Elev 997 ft 43.85 °N, 89.77 °W | Updated 3 seconds ago

Partly Cloudy
Partly Cloudy
68.0 °F
Feels Like 68.0 °F
N
1.4
Wind Variable Wind from SSE
Gusts 3.8 mph

Today
High -- | Low -- °F
--% Chance of Precip.
Yesterday
High -- | Low -- °F
Precip. -- in
5:24 AM 8:28 PM
First Quarter, 54% visible
Pressure 29.83 in
Visibility 10.0 miles
Clouds Scattered Clouds 2300 ft
Dew Point 62 °F
Humidity 82%
Rainfall 0.50 in
Snow Depth Not available.
UV 0 out of 12
Pollen .90 out of 12
Air Quality Not available.
Flu Activity Sporadic
SPECI KVOK 260330Z AUTO VRB06KT 10SM SCT023 20/20 A2983 RMK AO2 RAE30

More Conditions Fewer Conditions

Pressure 29.83 in
Visibility 10.0 miles
Clouds Scattered Clouds 2300 ft
Dew Point 62 °F
Humidity 82%
Rainfall 0.50 in
Snow Depth Not available.
UV 0 out of 12
Pollen .90 out of 12
Air Quality Not available.
Flu Activity Sporadic
SPECI KVOK 260330Z AUTO VRB06KT 10SM SCT023 20/20 A2983 RMK AO2 RAE30

More Conditions Fewer Conditions

10-Day Weather Forecast

Almanac

Astronomy

May. 25, 2015 Rise Set
Actual Time
Civil Twilight
Nautical Twilight
Astronomical Twilight
Moon
Length of Visible Light
Length of Day
Tomorrow will be .
, % of the Moon is Illuminated

Today's Extremes

State Highs State Lows

Community

WunderPhotos

Upload Photos

1,824,263 photos uploaded!

WunderBlogs® & News

Nearby

Air Quality

  Air Quality AQ Index Pollutant
Not available.

Snow Depth

Station Depth Elevation

Earthquake Activity

City Distance Mag. Time & Date
Minimum magnitude displayed is 2.5.

Coastal Water Temperatures

Place Temperature

Stations

Nearby Weather Stations

Station Location Temp. Windchill Dew Point Humidity Wind Precip. Elev Updated Type